createdAt,value
2019-06-10T00:00:13.360Z,21.5
2019-06-10T00:05:03.786Z,21.5
2019-06-10T00:10:03.789Z,21.4
2019-06-10T00:15:07.743Z,21.4
2019-06-10T00:20:02.356Z,21.4
2019-06-10T00:25:04.147Z,21.4
2019-06-10T00:30:03.293Z,21.3
2019-06-10T00:35:06.458Z,21.1
2019-06-10T00:40:04.014Z,21.1
2019-06-10T00:45:05.653Z,20.9
2019-06-10T00:50:03.803Z,20.8
2019-06-10T00:55:03.239Z,20.8
2019-06-10T01:00:12.422Z,20.7
2019-06-10T01:05:02.875Z,20.6
2019-06-10T01:10:02.872Z,20.5
2019-06-10T01:15:03.168Z,20.4
2019-06-10T01:20:03.703Z,20.3
2019-06-10T01:25:05.196Z,20.2
2019-06-10T01:30:10.055Z,20.1
2019-06-10T01:35:02.138Z,20.1
2019-06-10T01:40:01.455Z,20
2019-06-10T01:45:02.376Z,20
2019-06-10T01:50:01.631Z,19.9
2019-06-10T01:55:02.562Z,19.8
2019-06-10T02:00:08.937Z,19.7
2019-06-10T02:05:03.302Z,19.6
2019-06-10T02:10:01.833Z,19.6
2019-06-10T02:15:03.117Z,19.6
2019-06-10T02:20:02.172Z,19.5
2019-06-10T02:25:01.451Z,19.5
2019-06-10T02:30:13.376Z,19.4
2019-06-10T02:35:08.469Z,19.4
2019-06-10T02:40:04.406Z,19.4
2019-06-10T02:45:03.595Z,19.4
2019-06-10T02:50:08.221Z,19.4
2019-06-10T02:55:04.048Z,19.4
2019-06-10T03:00:04.633Z,19.4
2019-06-10T03:05:04.461Z,19.4
2019-06-10T03:10:04.589Z,19.4
2019-06-10T03:15:02.061Z,19.5
2019-06-10T03:20:02.490Z,19.5
2019-06-10T03:25:02.893Z,19.5
2019-06-10T03:30:03.065Z,19.5
2019-06-10T03:35:05.300Z,19.5
2019-06-10T03:40:02.580Z,19.4
2019-06-10T03:45:03.284Z,19.4
2019-06-10T03:50:03.175Z,19.3
2019-06-10T03:55:02.976Z,19.2
2019-06-10T04:00:10.311Z,19
2019-06-10T04:05:02.697Z,18.8
2019-06-10T04:10:03.436Z,18.8
2019-06-10T04:15:03.019Z,18.7
2019-06-10T04:20:09.101Z,18.7
2019-06-10T04:25:03.104Z,18.6
2019-06-10T04:30:03.234Z,18.6
2019-06-10T04:35:02.493Z,18.6
2019-06-10T04:40:02.786Z,18.6
2019-06-10T04:45:03.085Z,18.5
2019-06-10T04:50:03.079Z,18.4
2019-06-10T04:55:02.756Z,18.4
2019-06-10T05:00:02.764Z,18.4
2019-06-10T05:05:03.006Z,18.3
2019-06-10T05:10:03.181Z,18.3
2019-06-10T05:15:03.431Z,18.3
2019-06-10T05:20:02.625Z,18.4
2019-06-10T05:25:02.430Z,18.4
2019-06-10T05:30:02.407Z,18.4
2019-06-10T05:35:03.563Z,18.4
2019-06-10T05:40:02.343Z,18.3
2019-06-10T05:45:03.085Z,18.3
2019-06-10T05:50:12.956Z,18.3
2019-06-10T05:55:02.848Z,18.3
2019-06-10T06:00:07.074Z,18.3
2019-06-10T06:05:02.529Z,18.3
2019-06-10T06:10:02.835Z,18.4
2019-06-10T06:15:02.457Z,18.5
2019-06-10T06:20:02.687Z,18.5
2019-06-10T06:25:04.745Z,18.6
2019-06-10T06:30:04.108Z,18.6
2019-06-10T06:35:02.352Z,18.7
2019-06-10T06:40:02.762Z,18.8
2019-06-10T06:45:02.969Z,19
2019-06-10T06:50:02.677Z,19.1
2019-06-10T06:55:02.445Z,19.2
2019-06-10T07:00:30.083Z,19.2
2019-06-10T07:05:03.123Z,19.3
2019-06-10T07:10:03.324Z,19.5
2019-06-10T07:15:04.289Z,19.7
2019-06-10T07:20:04.508Z,20
2019-06-10T07:25:05.821Z,20
2019-06-10T07:30:11.216Z,20.1
2019-06-10T07:35:02.885Z,20.2
2019-06-10T07:40:03.013Z,20.3
2019-06-10T07:45:02.498Z,20.4
2019-06-10T07:50:03.306Z,20.5
2019-06-10T07:55:02.546Z,20.5
2019-06-10T08:00:03.081Z,20.6
2019-06-10T08:05:04.869Z,20.7
2019-06-10T08:10:02.847Z,20.6
2019-06-10T08:15:02.915Z,20.7
2019-06-10T08:20:02.455Z,20.7
2019-06-10T08:25:04.761Z,20.8
2019-06-10T08:30:15.051Z,20.9
2019-06-10T08:35:03.268Z,21
2019-06-10T08:40:03.761Z,21.1
2019-06-10T08:45:03.426Z,21.1
2019-06-10T08:50:02.733Z,21.2
2019-06-10T08:55:03.280Z,21.4
2019-06-10T09:00:10.857Z,21.6
2019-06-10T09:05:03.603Z,21.7
2019-06-10T09:10:02.924Z,21.8
2019-06-10T09:15:03.662Z,21.9
2019-06-10T09:20:04.252Z,22.2
2019-06-10T09:25:03.040Z,22.2
2019-06-10T09:30:02.945Z,22.3
2019-06-10T09:35:03.584Z,22.4
2019-06-10T09:40:12.412Z,22.8
2019-06-10T09:45:02.564Z,22.7
2019-06-10T09:50:05.625Z,23
2019-06-10T09:55:13.092Z,23.2
2019-06-10T10:00:05.468Z,23.4
2019-06-10T10:05:13.197Z,23.5
2019-06-10T10:10:05.663Z,23.7
2019-06-10T10:15:22.488Z,23.7
2019-06-10T10:20:18.170Z,23.8
2019-06-10T10:25:05.672Z,23.9
2019-06-10T10:30:15.556Z,24
2019-06-10T10:35:07.937Z,24.2
2019-06-10T10:40:03.862Z,24.2
2019-06-10T10:45:08.066Z,24.5
2019-06-10T10:50:03.041Z,24.5
2019-06-10T10:55:06.524Z,24.6
2019-06-10T11:00:26.138Z,24.6
2019-06-10T11:05:02.969Z,24.7
2019-06-10T11:10:03.833Z,24.8
2019-06-10T11:15:05.048Z,24.8
2019-06-10T11:20:13.702Z,25.2
2019-06-10T11:25:05.185Z,25.3
2019-06-10T11:30:05.431Z,25.5
2019-06-10T11:35:18.259Z,25.8
2019-06-10T11:40:23.480Z,25.9
2019-06-10T11:45:18.016Z,26
2019-06-10T11:50:23.669Z,25.9
2019-06-10T11:55:18.380Z,25.9
2019-06-10T12:00:17.357Z,26.1
2019-06-10T12:05:16.473Z,26.3
2019-06-10T12:10:02.963Z,26.3
2019-06-10T12:15:15.954Z,26.6
2019-06-10T12:20:15.637Z,26.7
2019-06-10T12:25:24.779Z,26.7
2019-06-10T12:30:14.346Z,26.7
2019-06-10T12:35:05.317Z,26.7
2019-06-10T12:40:05.965Z,26.8
2019-06-10T12:45:18.294Z,26.8
2019-06-10T12:50:05.607Z,27.1
2019-06-10T12:55:12.944Z,27.4
2019-06-10T13:00:19.165Z,27.5
2019-06-10T13:05:06.279Z,27.2
2019-06-10T13:10:05.645Z,27
2019-06-10T13:15:12.867Z,27.1
2019-06-10T13:20:06.733Z,27.6
2019-06-10T13:25:03.206Z,27.6
2019-06-10T13:30:04.235Z,28
2019-06-10T13:35:06.258Z,28.7
2019-06-10T13:40:18.280Z,28.7
2019-06-10T13:45:18.255Z,29.1
2019-06-10T13:50:09.804Z,29.6
2019-06-10T13:55:03.809Z,29.6
2019-06-10T14:00:05.533Z,30.3
2019-06-10T14:05:08.195Z,30.5
2019-06-10T14:10:13.584Z,30.7
2019-06-10T14:15:17.061Z,30.2
2019-06-10T14:20:06.429Z,29.9
2019-06-10T14:25:23.192Z,29.9
2019-06-10T14:30:18.331Z,30.1
2019-06-10T14:35:10.873Z,30.5
2019-06-10T14:40:03.892Z,30.5
2019-06-10T14:45:02.798Z,30.7
2019-06-10T14:50:18.330Z,30.7
2019-06-10T14:55:18.307Z,30.4
2019-06-10T15:00:03.148Z,30.4
2019-06-10T15:05:05.061Z,30.9
2019-06-10T15:10:03.479Z,31
2019-06-10T15:15:02.761Z,30.8
2019-06-10T15:20:13.698Z,30.1
2019-06-10T15:25:05.712Z,30.1
2019-06-10T15:30:21.517Z,29.9
2019-06-10T15:35:03.417Z,29.9
2019-06-10T15:40:09.036Z,29.8
2019-06-10T15:45:05.435Z,29.7
2019-06-10T15:50:27.556Z,29.3
2019-06-10T15:55:19.048Z,29
2019-06-10T16:00:11.090Z,29
2019-06-10T16:05:02.673Z,28.8
2019-06-10T16:10:08.265Z,29.9
2019-06-10T16:15:02.826Z,29.9
2019-06-10T16:20:05.749Z,31
2019-06-10T16:25:03.475Z,31
2019-06-10T16:30:03.108Z,31.3
2019-06-10T16:35:16.669Z,31.3
2019-06-10T16:40:03.444Z,31.3
2019-06-10T16:45:02.745Z,31.1
2019-06-10T16:50:03.326Z,30.7
2019-06-10T16:55:05.615Z,30.4
2019-06-10T17:00:10.875Z,30.4
2019-06-10T17:05:16.059Z,30.4
2019-06-10T17:10:02.797Z,30.4
2019-06-10T17:15:05.587Z,30.1
2019-06-10T17:20:05.498Z,29.7
2019-06-10T17:25:02.700Z,29.7
2019-06-10T17:30:05.490Z,29.1
2019-06-10T17:35:03.086Z,29.1
2019-06-10T17:40:02.928Z,29
2019-06-10T17:45:02.764Z,28.8
2019-06-10T17:50:03.260Z,28.4
2019-06-10T17:55:05.532Z,28.2
2019-06-10T18:00:14.823Z,28.2
2019-06-10T18:05:05.219Z,28.2
2019-06-10T18:10:03.204Z,28.2
2019-06-10T18:15:05.246Z,27.9
2019-06-10T18:20:24.343Z,27.8
2019-06-10T18:25:03.177Z,27.9
2019-06-10T18:30:10.619Z,27.7
2019-06-10T18:35:03.073Z,27.7
2019-06-10T18:40:02.972Z,27.7
2019-06-10T18:45:02.812Z,27.6
2019-06-10T18:50:08.560Z,27.4
2019-06-10T18:55:12.826Z,27.3
2019-06-10T19:00:10.834Z,27.3
2019-06-10T19:05:15.635Z,27.1
2019-06-10T19:10:05.568Z,27
2019-06-10T19:15:03.268Z,27
2019-06-10T19:20:03.900Z,26.9
2019-06-10T19:25:03.607Z,26.8
2019-06-10T19:30:07.924Z,26.5
2019-06-10T19:35:06.264Z,26.6
2019-06-10T19:40:05.690Z,26.3
2019-06-10T19:45:06.294Z,26.3
2019-06-10T19:50:03.186Z,26.2
2019-06-10T19:55:13.071Z,26.1
2019-06-10T20:00:12.289Z,26
2019-06-10T20:05:22.807Z,26
2019-06-10T20:10:13.027Z,25.9
2019-06-10T20:15:05.531Z,25.9
2019-06-10T20:20:13.336Z,25.7
2019-06-10T20:25:05.584Z,25.7
2019-06-10T20:30:23.679Z,25.6
2019-06-10T20:35:03.154Z,25.6
2019-06-10T20:40:26.038Z,25.4
2019-06-10T20:45:04.951Z,25.4
2019-06-10T20:50:03.039Z,25.4
2019-06-10T20:55:02.917Z,25.4
2019-06-10T21:00:15.929Z,25.3
2019-06-10T21:05:02.870Z,25.3
2019-06-10T21:10:02.729Z,25.3
2019-06-10T21:15:02.503Z,25.2
2019-06-10T21:20:09.402Z,25
2019-06-10T21:25:02.688Z,25
2019-06-10T21:30:03.053Z,24.8
2019-06-10T21:35:03.278Z,24.7
2019-06-10T21:40:03.214Z,24.6
2019-06-10T21:45:03.391Z,24.5
2019-06-10T21:50:02.263Z,24.4
2019-06-10T21:55:02.909Z,24.4
2019-06-10T22:00:03.845Z,24.3
2019-06-10T22:05:03.277Z,24.2
2019-06-10T22:10:02.598Z,24
2019-06-10T22:15:01.431Z,23.9
2019-06-10T22:20:02.145Z,23.8
2019-06-10T22:25:02.902Z,23.7
2019-06-10T22:30:10.891Z,23.6
2019-06-10T22:35:02.961Z,23.4
2019-06-10T22:40:03.566Z,23.4
2019-06-10T22:45:03.770Z,23.3
2019-06-10T22:50:06.940Z,23.3
2019-06-10T22:55:03.406Z,23.2
2019-06-10T23:00:03.355Z,23
2019-06-10T23:05:05.316Z,22.9
2019-06-10T23:10:03.206Z,22.8
2019-06-10T23:15:02.893Z,22.8
2019-06-10T23:20:03.141Z,22.7
2019-06-10T23:25:03.178Z,22.6
2019-06-10T23:30:11.392Z,22.6
2019-06-10T23:35:03.297Z,22.6
2019-06-10T23:40:04.176Z,22.6
2019-06-10T23:45:12.861Z,22.5
2019-06-10T23:50:04.111Z,22.4
2019-06-10T23:55:04.474Z,22.3
